createdAt,value
2023-05-01T00:00:00.619Z,14.6
2023-05-01T00:01:00.607Z,14.6
2023-05-01T00:02:00.648Z,14.6
2023-05-01T00:03:00.795Z,14.7
2023-05-01T00:04:00.939Z,14.7
2023-05-01T00:05:01.696Z,14.7
2023-05-01T00:06:02.945Z,14.7
2023-05-01T00:07:00.617Z,14.7
2023-05-01T00:08:00.638Z,14.8
2023-05-01T00:09:01.393Z,14.8
2023-05-01T00:10:00.678Z,14.8
2023-05-01T00:11:04.576Z,14.8
2023-05-01T00:12:01.433Z,14.8
2023-05-01T00:13:00.699Z,14.3
2023-05-01T00:14:00.637Z,14.3
2023-05-01T00:15:00.632Z,14.3
2023-05-01T00:16:00.646Z,14.3
2023-05-01T00:17:00.643Z,14.3
2023-05-01T00:18:00.690Z,14.9
2023-05-01T00:19:00.633Z,14.9
2023-05-01T00:20:00.619Z,14.9
2023-05-01T00:21:00.724Z,14.9
2023-05-01T00:22:00.643Z,14.9
2023-05-01T00:23:00.606Z,14.8
2023-05-01T00:24:00.597Z,14.8
2023-05-01T00:25:00.852Z,14.8
2023-05-01T00:26:00.631Z,14.8
2023-05-01T00:27:00.629Z,14.8
2023-05-01T00:28:00.603Z,14.8
2023-05-01T00:29:00.604Z,14.8
2023-05-01T00:30:00.822Z,14.8
2023-05-01T00:31:00.637Z,14.8
2023-05-01T00:32:00.651Z,14.8
2023-05-01T00:33:00.703Z,15.5
2023-05-01T00:34:00.673Z,15.5
2023-05-01T00:35:00.639Z,15.5
2023-05-01T00:36:00.656Z,15.5
2023-05-01T00:37:00.622Z,15.5
2023-05-01T00:38:00.638Z,15.0
2023-05-01T00:39:00.621Z,15.0
2023-05-01T00:40:00.641Z,15.0
2023-05-01T00:41:00.616Z,15.0
2023-05-01T00:42:00.624Z,15.0
2023-05-01T00:43:00.631Z,14.3
2023-05-01T00:44:00.926Z,14.3
2023-05-01T00:45:00.768Z,14.3
2023-05-01T00:46:00.648Z,14.3
2023-05-01T00:47:00.716Z,14.3
2023-05-01T00:48:00.779Z,15.7
2023-05-01T00:49:00.658Z,15.7
2023-05-01T00:50:01.045Z,15.7
2023-05-01T00:51:03.572Z,15.7
2023-05-01T00:52:00.807Z,15.7
2023-05-01T00:53:01.343Z,14.8
2023-05-01T00:54:01.653Z,14.8
2023-05-01T00:55:00.724Z,14.8
2023-05-01T00:56:00.869Z,14.8
2023-05-01T00:57:01.395Z,14.8
2023-05-01T00:58:00.730Z,14.1
2023-05-01T00:59:00.648Z,14.1
2023-05-01T01:00:00.888Z,14.1
2023-05-01T01:01:00.947Z,14.1
2023-05-01T01:02:00.684Z,14.1
2023-05-01T01:03:00.842Z,15.5
2023-05-01T01:04:00.678Z,15.5
2023-05-01T01:05:00.665Z,15.5
2023-05-01T01:06:20.605Z,15.5
2023-05-01T01:07:15.039Z,15.5
2023-05-01T01:08:10.243Z,14.7
2023-05-01T01:09:10.595Z,14.7
2023-05-01T01:10:10.568Z,14.7
2023-05-01T01:11:13.052Z,14.7
2023-05-01T01:12:12.203Z,14.7
2023-05-01T01:13:10.910Z,14.8
2023-05-01T01:14:14.375Z,14.8
2023-05-01T01:15:12.933Z,14.8
2023-05-01T01:16:02.642Z,14.8
2023-05-01T01:17:10.715Z,14.8
2023-05-01T01:18:11.457Z,14.5
2023-05-01T01:19:13.250Z,14.5
2023-05-01T01:20:12.926Z,14.5
2023-05-01T01:21:11.433Z,14.5
2023-05-01T01:22:08.918Z,14.5
2023-05-01T01:23:17.929Z,16.9
2023-05-01T01:24:11.493Z,16.9
2023-05-01T01:25:20.560Z,16.9
2023-05-01T01:26:11.000Z,16.9
2023-05-01T01:27:17.533Z,16.9
2023-05-01T01:28:15.710Z,15.1
2023-05-01T01:29:20.567Z,15.1
2023-05-01T01:30:20.525Z,15.1
2023-05-01T01:31:08.282Z,15.1
2023-05-01T01:32:20.524Z,15.1
2023-05-01T01:33:20.529Z,16.6
2023-05-01T01:34:01.784Z,16.6
2023-05-01T01:35:04.913Z,16.6
2023-05-01T01:36:05.778Z,16.6
2023-05-01T01:37:12.933Z,16.6
2023-05-01T01:38:08.589Z,15.7
2023-05-01T01:39:09.770Z,15.7
2023-05-01T01:40:04.024Z,15.7
2023-05-01T01:41:07.715Z,15.7
2023-05-01T01:42:07.346Z,15.7
2023-05-01T01:43:06.013Z,15.5
2023-05-01T01:44:08.965Z,15.5
2023-05-01T01:45:05.958Z,15.5
2023-05-01T01:46:04.220Z,15.5
2023-05-01T01:47:05.004Z,15.5
2023-05-01T01:48:02.022Z,16.1
2023-05-01T01:49:05.364Z,16.1
2023-05-01T01:50:03.949Z,16.1
2023-05-01T01:51:07.041Z,16.1
2023-05-01T01:52:02.539Z,16.1
2023-05-01T01:53:03.126Z,16.8
2023-05-01T01:54:03.290Z,16.8
2023-05-01T01:55:06.987Z,16.8
2023-05-01T01:56:03.934Z,16.8
2023-05-01T01:57:02.065Z,16.8
2023-05-01T01:58:02.529Z,16.1
2023-05-01T01:59:03.494Z,16.1
2023-05-01T02:00:00.654Z,16.1
2023-05-01T02:01:00.850Z,16.1
2023-05-01T02:02:02.700Z,16.1
2023-05-01T02:03:01.511Z,16.1
2023-05-01T02:04:01.676Z,16.1
2023-05-01T02:05:01.966Z,16.1
2023-05-01T02:06:03.448Z,16.1
2023-05-01T02:07:02.574Z,16.1
2023-05-01T02:08:01.377Z,16.3
2023-05-01T02:09:02.449Z,16.3
2023-05-01T02:10:02.740Z,16.3
2023-05-01T02:11:02.444Z,16.3
2023-05-01T02:12:04.324Z,16.3
2023-05-01T02:13:02.070Z,16.6
2023-05-01T02:14:01.676Z,16.6
2023-05-01T02:15:01.494Z,16.6
2023-05-01T02:16:02.373Z,16.6
2023-05-01T02:17:01.808Z,16.6
2023-05-01T02:18:02.361Z,16.6
2023-05-01T02:19:03.447Z,16.6
2023-05-01T02:20:01.789Z,16.6
2023-05-01T02:21:03.084Z,16.6
2023-05-01T02:22:01.845Z,16.6
2023-05-01T02:23:02.831Z,17.8
2023-05-01T02:24:00.981Z,17.8
2023-05-01T02:25:02.229Z,17.8
2023-05-01T02:26:02.759Z,17.8
2023-05-01T02:27:06.048Z,17.8
2023-05-01T02:28:07.035Z,18.8
2023-05-01T02:29:00.650Z,18.8
2023-05-01T02:30:00.817Z,18.8
2023-05-01T02:31:00.673Z,18.8
2023-05-01T02:32:00.718Z,18.8
2023-05-01T02:33:00.750Z,18.5
2023-05-01T02:34:00.612Z,18.5
2023-05-01T02:35:00.640Z,18.5
2023-05-01T02:36:00.643Z,18.5
2023-05-01T02:37:03.165Z,18.5
2023-05-01T02:38:00.706Z,17.7
2023-05-01T02:39:01.103Z,17.7
2023-05-01T02:40:02.004Z,17.7
2023-05-01T02:41:02.550Z,17.7
2023-05-01T02:42:02.220Z,17.7
2023-05-01T02:43:04.723Z,17.2
2023-05-01T02:44:02.520Z,17.2
2023-05-01T02:45:05.447Z,17.2
2023-05-01T02:46:02.924Z,17.2
2023-05-01T02:47:02.298Z,17.2
2023-05-01T02:48:04.335Z,17.8
2023-05-01T02:49:02.297Z,17.8
2023-05-01T02:50:01.707Z,17.8
2023-05-01T02:51:01.864Z,17.8
2023-05-01T02:52:01.769Z,17.8
2023-05-01T02:53:01.082Z,17.8
2023-05-01T02:54:01.219Z,17.8
2023-05-01T02:55:01.014Z,17.8
2023-05-01T02:56:02.740Z,17.8
2023-05-01T02:57:02.616Z,17.8
2023-05-01T02:58:00.733Z,18.1
2023-05-01T02:59:00.650Z,18.1
2023-05-01T03:00:00.628Z,18.1
2023-05-01T03:01:00.663Z,18.1
2023-05-01T03:02:00.794Z,18.1
2023-05-01T03:03:00.678Z,17.7
2023-05-01T03:04:00.675Z,17.7
2023-05-01T03:05:00.625Z,17.7
2023-05-01T03:06:00.660Z,17.7
2023-05-01T03:07:00.623Z,17.7
2023-05-01T03:08:00.673Z,17.8
2023-05-01T03:09:00.616Z,17.8
2023-05-01T03:10:01.419Z,17.8
2023-05-01T03:11:03.460Z,17.8
2023-05-01T03:12:00.612Z,17.8
2023-05-01T03:13:00.620Z,17.7
2023-05-01T03:14:00.681Z,17.7
2023-05-01T03:15:00.646Z,17.7
2023-05-01T03:16:01.303Z,17.7
2023-05-01T03:17:00.688Z,17.7
2023-05-01T03:18:01.596Z,18.4
2023-05-01T03:19:00.604Z,18.4
2023-05-01T03:20:00.637Z,18.4
2023-05-01T03:21:00.640Z,18.4
2023-05-01T03:22:00.617Z,18.4
2023-05-01T03:23:00.762Z,18.0
2023-05-01T03:24:00.605Z,18.0
2023-05-01T03:25:00.952Z,18.0
2023-05-01T03:26:00.639Z,18.0
2023-05-01T03:27:00.611Z,18.0
2023-05-01T03:28:00.613Z,18.6
2023-05-01T03:29:00.667Z,18.6
2023-05-01T03:30:00.604Z,18.6
2023-05-01T03:31:00.626Z,18.6
2023-05-01T03:32:00.850Z,18.6
2023-05-01T03:33:00.964Z,19.2
2023-05-01T03:34:00.619Z,19.2
2023-05-01T03:35:00.743Z,19.2
2023-05-01T03:36:01.841Z,19.2
2023-05-01T03:37:00.629Z,19.2
2023-05-01T03:38:00.631Z,18.8
2023-05-01T03:39:00.608Z,18.8
2023-05-01T03:40:00.917Z,18.8
2023-05-01T03:41:00.656Z,18.8
2023-05-01T03:42:00.633Z,18.8
2023-05-01T03:43:00.637Z,19.0
2023-05-01T03:44:00.603Z,19.0
2023-05-01T03:45:00.611Z,19.0
2023-05-01T03:46:00.630Z,19.0
2023-05-01T03:47:00.601Z,18.3
2023-05-01T03:48:00.701Z,18.3
2023-05-01T03:49:00.624Z,18.3
2023-05-01T03:50:00.651Z,18.3
2023-05-01T03:51:00.688Z,18.3
2023-05-01T03:52:00.674Z,19.8
2023-05-01T03:53:00.605Z,19.8
2023-05-01T03:54:00.650Z,19.8
2023-05-01T03:55:00.639Z,19.8
2023-05-01T03:56:00.613Z,19.8
2023-05-01T03:57:00.646Z,20.1
2023-05-01T03:58:00.602Z,20.1
2023-05-01T03:59:00.821Z,20.1
2023-05-01T04:00:00.638Z,20.1
2023-05-01T04:01:00.621Z,20.1
2023-05-01T04:02:00.684Z,19.3
2023-05-01T04:03:00.790Z,19.3
2023-05-01T04:04:00.934Z,19.3
2023-05-01T04:05:00.758Z,19.3
2023-05-01T04:06:00.642Z,19.3
2023-05-01T04:07:00.678Z,19.4
2023-05-01T04:08:00.648Z,19.4
2023-05-01T04:09:00.612Z,19.4
2023-05-01T04:10:00.625Z,19.4
2023-05-01T04:11:00.687Z,19.4
2023-05-01T04:12:00.639Z,19.3
2023-05-01T04:13:00.607Z,19.3
2023-05-01T04:14:00.761Z,19.3
2023-05-01T04:15:00.646Z,19.3
2023-05-01T04:16:00.762Z,19.3
2023-05-01T04:17:00.793Z,19.2
2023-05-01T04:18:00.731Z,19.2
2023-05-01T04:19:00.614Z,19.2
2023-05-01T04:20:00.737Z,19.2
2023-05-01T04:21:00.644Z,19.2
2023-05-01T04:22:00.667Z,19.8
2023-05-01T04:23:00.648Z,19.8
2023-05-01T04:24:00.600Z,19.8
2023-05-01T04:25:00.620Z,19.8
2023-05-01T04:26:00.623Z,19.8
2023-05-01T04:27:00.752Z,18.7
2023-05-01T04:28:00.628Z,18.7
2023-05-01T04:29:00.607Z,18.7
2023-05-01T04:30:00.864Z,18.7
2023-05-01T04:31:00.791Z,18.7
2023-05-01T04:32:00.696Z,17.4
2023-05-01T04:33:00.691Z,17.4
2023-05-01T04:34:00.698Z,17.4
2023-05-01T04:35:00.627Z,17.4
2023-05-01T04:36:00.656Z,17.4
2023-05-01T04:37:00.607Z,16.6
2023-05-01T04:38:00.663Z,16.6
2023-05-01T04:39:00.604Z,16.6
2023-05-01T04:40:00.609Z,16.6
2023-05-01T04:41:00.612Z,16.6
2023-05-01T04:42:00.873Z,16.5
2023-05-01T04:43:00.650Z,16.5
2023-05-01T04:44:00.634Z,16.5
2023-05-01T04:45:00.639Z,16.5
2023-05-01T04:46:02.662Z,16.5
2023-05-01T04:47:01.184Z,14.6
2023-05-01T04:48:00.643Z,14.6
2023-05-01T04:49:00.677Z,14.6
2023-05-01T04:50:00.617Z,14.6
2023-05-01T04:51:00.599Z,14.6
2023-05-01T04:52:00.621Z,14.5
2023-05-01T04:53:00.598Z,14.5
2023-05-01T04:54:00.609Z,14.5
2023-05-01T04:55:00.769Z,14.5
2023-05-01T04:56:00.618Z,14.5
2023-05-01T04:57:00.620Z,14.3
2023-05-01T04:58:00.690Z,14.3
2023-05-01T04:59:00.622Z,14.3
2023-05-01T05:00:01.187Z,14.3
2023-05-01T05:01:00.618Z,14.3
2023-05-01T05:02:00.650Z,13.7
2023-05-01T05:03:00.789Z,13.7
2023-05-01T05:04:00.906Z,13.7
2023-05-01T05:05:00.614Z,13.7
2023-05-01T05:06:00.666Z,13.7
2023-05-01T05:07:00.665Z,13.3
2023-05-01T05:08:00.608Z,13.3
2023-05-01T05:09:00.637Z,13.3
2023-05-01T05:10:00.631Z,13.3
2023-05-01T05:11:00.794Z,13.3
2023-05-01T05:12:00.605Z,14.0
2023-05-01T05:13:00.620Z,14.0
2023-05-01T05:14:00.644Z,14.0
2023-05-01T05:15:00.611Z,14.0
2023-05-01T05:16:00.673Z,14.0
2023-05-01T05:17:00.761Z,13.7
2023-05-01T05:18:00.654Z,13.7
2023-05-01T05:19:00.717Z,13.7
2023-05-01T05:20:00.622Z,13.7
2023-05-01T05:21:02.521Z,13.7
2023-05-01T05:22:01.509Z,13.2
2023-05-01T05:23:00.609Z,13.2
2023-05-01T05:24:00.605Z,13.2
2023-05-01T05:25:00.609Z,13.2
2023-05-01T05:26:01.051Z,13.2
2023-05-01T05:27:00.594Z,13.1
2023-05-01T05:28:00.692Z,13.1
2023-05-01T05:29:00.611Z,13.1
2023-05-01T05:30:01.075Z,13.1
2023-05-01T05:31:00.634Z,13.1
2023-05-01T05:32:00.746Z,12.9
2023-05-01T05:33:00.789Z,12.9
2023-05-01T05:34:00.609Z,12.9
2023-05-01T05:35:00.682Z,12.9
2023-05-01T05:36:00.638Z,12.9
2023-05-01T05:37:00.604Z,12.5
2023-05-01T05:38:00.640Z,12.5
2023-05-01T05:39:00.634Z,12.5
2023-05-01T05:40:00.616Z,12.5
2023-05-01T05:41:00.610Z,12.5
2023-05-01T05:42:00.608Z,12.6
2023-05-01T05:43:00.665Z,12.6
2023-05-01T05:44:00.658Z,12.6
2023-05-01T05:45:00.680Z,12.6
2023-05-01T05:46:00.680Z,12.6
2023-05-01T05:47:00.667Z,13.3
2023-05-01T05:48:00.697Z,13.3
2023-05-01T05:49:00.643Z,13.3
2023-05-01T05:50:00.734Z,13.3
2023-05-01T05:51:00.807Z,13.3
2023-05-01T05:52:00.608Z,11.4
2023-05-01T05:53:00.635Z,11.4
2023-05-01T05:54:00.638Z,11.4
2023-05-01T05:55:00.618Z,11.4
2023-05-01T05:56:00.630Z,11.4
2023-05-01T05:57:00.603Z,12.0
2023-05-01T05:58:00.623Z,12.0
2023-05-01T05:59:00.615Z,12.0
2023-05-01T06:00:00.629Z,12.0
2023-05-01T06:01:00.619Z,12.0
2023-05-01T06:02:00.717Z,10.8
2023-05-01T06:03:00.767Z,10.8
2023-05-01T06:04:00.607Z,10.8
2023-05-01T06:05:00.716Z,10.8
2023-05-01T06:06:01.201Z,10.8
2023-05-01T06:07:00.760Z,9.7
2023-05-01T06:08:00.648Z,9.7
2023-05-01T06:09:00.622Z,9.7
2023-05-01T06:10:00.631Z,9.7
2023-05-01T06:11:00.644Z,9.7
2023-05-01T06:12:00.657Z,9.0
2023-05-01T06:13:03.993Z,9.0
2023-05-01T06:14:00.656Z,9.0
2023-05-01T06:15:00.672Z,9.0
2023-05-01T06:16:00.828Z,9.0
2023-05-01T06:17:00.814Z,9.1
2023-05-01T06:18:00.722Z,9.1
2023-05-01T06:19:00.769Z,9.1
2023-05-01T06:20:00.689Z,9.1
2023-05-01T06:21:00.626Z,9.1
2023-05-01T06:22:00.690Z,9.2
2023-05-01T06:23:00.632Z,9.2
2023-05-01T06:24:00.726Z,9.2
2023-05-01T06:25:00.668Z,9.2
2023-05-01T06:26:00.686Z,9.2
2023-05-01T06:27:01.516Z,9.1
2023-05-01T06:28:00.653Z,9.1
2023-05-01T06:29:00.611Z,9.1
2023-05-01T06:30:00.650Z,9.1
2023-05-01T06:31:00.809Z,9.1
2023-05-01T06:32:00.726Z,9.0
2023-05-01T06:33:00.636Z,9.0
2023-05-01T06:34:00.643Z,9.0
2023-05-01T06:35:00.633Z,9.0
2023-05-01T06:36:00.660Z,9.0
2023-05-01T06:37:00.665Z,9.1
2023-05-01T06:38:00.675Z,9.1
2023-05-01T06:39:00.663Z,9.1
2023-05-01T06:40:00.787Z,9.1
2023-05-01T06:41:00.667Z,9.1
2023-05-01T06:42:00.637Z,8.7
2023-05-01T06:43:01.498Z,8.7
2023-05-01T06:44:00.855Z,8.7
2023-05-01T06:45:00.640Z,8.7
2023-05-01T06:46:00.610Z,8.7
2023-05-01T06:47:00.654Z,9.2
2023-05-01T06:48:00.772Z,9.2
2023-05-01T06:49:00.633Z,9.2
2023-05-01T06:50:02.837Z,9.2
2023-05-01T06:51:00.605Z,9.2
2023-05-01T06:52:00.879Z,8.8
2023-05-01T06:53:00.610Z,8.8
2023-05-01T06:54:00.689Z,8.8
2023-05-01T06:55:00.669Z,8.8
2023-05-01T06:56:00.612Z,8.8
2023-05-01T06:57:00.634Z,8.4
2023-05-01T06:58:02.705Z,8.4
2023-05-01T06:59:00.618Z,8.4
2023-05-01T07:00:00.622Z,8.4
2023-05-01T07:01:00.764Z,8.4
2023-05-01T07:02:00.670Z,9.0
2023-05-01T07:03:00.705Z,9.0
2023-05-01T07:04:00.690Z,9.0
2023-05-01T07:05:00.603Z,9.0
2023-05-01T07:06:00.677Z,9.0
2023-05-01T07:07:00.609Z,8.8
2023-05-01T07:08:01.825Z,8.8
2023-05-01T07:09:00.665Z,8.8
2023-05-01T07:10:01.121Z,8.8
2023-05-01T07:11:00.799Z,8.8
2023-05-01T07:12:00.727Z,8.2
2023-05-01T07:13:00.633Z,8.2
2023-05-01T07:14:00.625Z,8.2
2023-05-01T07:15:00.624Z,8.2
2023-05-01T07:16:00.644Z,8.2
2023-05-01T07:17:01.483Z,8.5
2023-05-01T07:18:00.671Z,8.5
2023-05-01T07:20:00.646Z,8.5
2023-05-01T07:21:00.635Z,8.5
2023-05-01T07:22:00.625Z,8.5
2023-05-01T07:23:00.874Z,8.3
2023-05-01T07:24:00.609Z,8.3
2023-05-01T07:25:00.620Z,8.3
2023-05-01T07:26:00.642Z,8.3
2023-05-01T07:27:00.608Z,8.3
2023-05-01T07:28:00.644Z,8.0
2023-05-01T07:29:00.655Z,8.0
2023-05-01T07:30:02.163Z,8.0
2023-05-01T07:31:00.647Z,8.0
2023-05-01T07:32:00.658Z,8.0
2023-05-01T07:33:00.739Z,7.9
2023-05-01T07:34:00.625Z,7.9
2023-05-01T07:35:00.659Z,7.9
2023-05-01T07:36:00.685Z,7.9
2023-05-01T07:37:00.624Z,7.9
2023-05-01T07:38:00.638Z,7.8
2023-05-01T07:39:00.615Z,7.8
2023-05-01T07:40:00.652Z,7.8
2023-05-01T07:41:00.643Z,7.8
2023-05-01T07:42:00.614Z,7.8
2023-05-01T07:43:00.609Z,7.4
2023-05-01T07:44:00.660Z,7.4
2023-05-01T07:45:01.078Z,7.4
2023-05-01T07:46:00.775Z,7.4
2023-05-01T07:47:03.101Z,7.4
2023-05-01T07:48:00.672Z,7.7
2023-05-01T07:49:00.805Z,7.7
2023-05-01T07:50:01.044Z,7.7
2023-05-01T07:51:01.548Z,7.7
2023-05-01T07:52:00.615Z,7.7
2023-05-01T07:53:00.646Z,7.0
2023-05-01T07:54:00.648Z,7.0
2023-05-01T07:55:00.612Z,7.0
2023-05-01T07:56:05.397Z,7.0
2023-05-01T07:57:00.658Z,7.0
2023-05-01T07:58:00.613Z,7.0
2023-05-01T07:59:00.657Z,7.0
2023-05-01T08:00:00.711Z,7.0
2023-05-01T08:01:00.784Z,7.0
2023-05-01T08:02:00.643Z,7.0
2023-05-01T08:03:01.324Z,7.3
2023-05-01T08:04:00.742Z,7.3
2023-05-01T08:05:01.116Z,7.3
2023-05-01T08:06:00.689Z,7.3
2023-05-01T08:07:00.616Z,7.3
2023-05-01T08:08:00.617Z,6.5
2023-05-01T08:09:00.630Z,6.5
2023-05-01T08:10:01.180Z,6.5
2023-05-01T08:11:00.620Z,6.5
2023-05-01T08:12:00.653Z,6.5
2023-05-01T08:13:00.645Z,6.6
2023-05-01T08:14:00.679Z,6.6
2023-05-01T08:15:00.900Z,6.6
2023-05-01T08:16:01.719Z,6.6
2023-05-01T08:17:00.649Z,6.6
2023-05-01T08:18:00.716Z,6.1
2023-05-01T08:19:00.686Z,6.1
2023-05-01T08:20:01.339Z,6.1
2023-05-01T08:21:00.642Z,6.1
2023-05-01T08:22:00.647Z,6.1
2023-05-01T08:23:00.700Z,6.5
2023-05-01T08:24:00.724Z,6.5
2023-05-01T08:25:00.642Z,6.5
2023-05-01T08:26:00.686Z,6.5
2023-05-01T08:27:00.664Z,6.5
2023-05-01T08:28:00.714Z,5.9
2023-05-01T08:29:00.733Z,5.9
2023-05-01T08:30:00.729Z,5.9
2023-05-01T08:31:00.692Z,5.9
2023-05-01T08:32:01.113Z,5.9
2023-05-01T08:33:00.684Z,6.0
2023-05-01T08:34:00.611Z,6.0
2023-05-01T08:35:00.616Z,6.0
2023-05-01T08:36:00.613Z,6.0
2023-05-01T08:37:00.909Z,6.0
2023-05-01T08:38:00.631Z,6.8
2023-05-01T08:39:00.646Z,6.8
2023-05-01T08:40:00.638Z,6.8
2023-05-01T08:41:00.837Z,6.8
2023-05-01T08:42:01.769Z,6.8
2023-05-01T08:43:00.747Z,6.7
2023-05-01T08:44:01.474Z,6.7
2023-05-01T08:45:01.938Z,6.7
2023-05-01T08:46:02.219Z,6.7
2023-05-01T08:47:10.256Z,6.8
2023-05-01T08:48:03.845Z,6.8
2023-05-01T08:49:03.631Z,6.8
2023-05-01T08:50:02.513Z,6.8
2023-05-01T08:51:02.311Z,6.8
2023-05-01T08:52:01.658Z,6.8
2023-05-01T08:53:01.567Z,6.1
2023-05-01T08:54:02.317Z,6.1
2023-05-01T08:55:01.414Z,6.1
2023-05-01T08:56:05.256Z,6.1
2023-05-01T08:57:01.446Z,6.1
2023-05-01T08:58:02.697Z,6.8
2023-05-01T08:59:03.883Z,6.8
2023-05-01T09:00:02.482Z,6.8
2023-05-01T09:01:01.536Z,6.8
2023-05-01T09:02:02.545Z,6.8
2023-05-01T09:03:00.714Z,6.4
2023-05-01T09:04:02.101Z,6.4
2023-05-01T09:05:01.226Z,6.4
2023-05-01T09:06:01.713Z,6.4
2023-05-01T09:07:00.748Z,6.4
2023-05-01T09:08:00.633Z,6.8
2023-05-01T09:09:00.764Z,6.8
2023-05-01T09:10:00.693Z,6.8
2023-05-01T09:11:02.708Z,6.8
2023-05-01T09:12:15.856Z,6.3
2023-05-01T09:13:02.745Z,6.3
2023-05-01T09:14:01.602Z,6.3
2023-05-01T09:15:01.883Z,6.3
2023-05-01T09:16:00.900Z,6.3
2023-05-01T09:17:00.667Z,6.3
2023-05-01T09:18:03.222Z,6.9
2023-05-01T09:19:00.719Z,6.9
2023-05-01T09:20:01.203Z,6.9
2023-05-01T09:21:00.945Z,6.9
2023-05-01T09:22:00.618Z,6.9
2023-05-01T09:23:00.643Z,6.7
2023-05-01T09:24:00.631Z,6.7
2023-05-01T09:25:00.853Z,6.7
2023-05-01T09:26:03.780Z,6.7
2023-05-01T09:27:00.627Z,6.7
2023-05-01T09:28:03.808Z,6.3
2023-05-01T09:29:00.609Z,6.3
2023-05-01T09:30:00.859Z,6.3
2023-05-01T09:31:20.577Z,6.3
2023-05-01T09:32:20.472Z,6.3
2023-05-01T09:33:05.293Z,6.3
2023-05-01T09:34:02.503Z,6.3
2023-05-01T09:35:10.723Z,6.3
2023-05-01T09:36:00.674Z,6.3
2023-05-01T09:37:01.180Z,6.3
2023-05-01T09:38:00.648Z,6.7
2023-05-01T09:39:01.047Z,6.7
2023-05-01T09:40:12.221Z,6.7
2023-05-01T09:41:04.037Z,6.7
2023-05-01T09:42:00.645Z,6.7
2023-05-01T09:43:00.764Z,6.6
2023-05-01T09:44:00.644Z,6.6
2023-05-01T09:45:02.612Z,6.6
2023-05-01T09:46:01.807Z,6.6
2023-05-01T09:47:00.773Z,6.6
2023-05-01T09:48:06.905Z,6.6
2023-05-01T09:49:01.099Z,6.6
2023-05-01T09:50:00.631Z,6.6
2023-05-01T09:51:05.429Z,6.6
2023-05-01T09:52:10.629Z,6.8
2023-05-01T09:53:01.802Z,6.8
2023-05-01T09:54:02.243Z,6.8
2023-05-01T09:55:11.446Z,6.8
2023-05-01T09:56:00.638Z,6.8
2023-05-01T09:57:00.627Z,6.8
2023-05-01T09:58:01.342Z,6.4
2023-05-01T09:59:18.628Z,6.4
2023-05-01T10:00:01.775Z,6.4
2023-05-01T10:01:00.771Z,6.4
2023-05-01T10:02:00.769Z,6.4
2023-05-01T10:03:12.337Z,6.3
2023-05-01T10:04:00.664Z,6.3
2023-05-01T10:05:01.013Z,6.3
2023-05-01T10:06:00.735Z,6.3
2023-05-01T10:07:11.435Z,6.6
2023-05-01T10:08:01.659Z,6.6
2023-05-01T10:09:01.902Z,6.6
2023-05-01T10:10:18.728Z,6.6
2023-05-01T10:11:02.563Z,6.6
2023-05-01T10:12:00.689Z,6.6
2023-05-01T10:13:14.197Z,7.0
2023-05-01T10:14:08.961Z,7.0
2023-05-01T10:15:07.867Z,7.0
2023-05-01T10:16:00.643Z,7.0
2023-05-01T10:17:16.050Z,7.3
2023-05-01T10:18:00.829Z,7.3
2023-05-01T10:19:03.029Z,7.3
2023-05-01T10:20:00.640Z,7.3
2023-05-01T10:21:03.463Z,7.3
2023-05-01T10:22:00.839Z,7.3
2023-05-01T10:23:01.310Z,6.9
2023-05-01T10:24:01.985Z,6.9
2023-05-01T10:25:00.845Z,6.9
2023-05-01T10:26:03.315Z,6.9
2023-05-01T10:27:01.014Z,6.9
2023-05-01T10:28:02.602Z,6.7
2023-05-01T10:29:02.013Z,6.7
2023-05-01T10:30:02.446Z,6.7
2023-05-01T10:31:01.899Z,6.7
2023-05-01T10:32:01.893Z,6.7
2023-05-01T10:33:01.319Z,6.0
2023-05-01T10:34:00.879Z,6.0
2023-05-01T10:35:06.028Z,6.0
2023-05-01T10:36:02.398Z,6.0
2023-05-01T10:37:05.412Z,6.0
2023-05-01T10:38:03.414Z,6.3
2023-05-01T10:39:00.712Z,6.3
2023-05-01T10:40:20.526Z,6.3
2023-05-01T10:41:00.679Z,6.3
2023-05-01T10:42:01.415Z,6.3
2023-05-01T10:43:12.118Z,5.7
2023-05-01T10:44:19.124Z,5.7
2023-05-01T10:45:20.523Z,5.7
2023-05-01T10:46:13.833Z,5.7
2023-05-01T10:47:20.574Z,6.2
2023-05-01T10:48:00.649Z,6.2
2023-05-01T10:49:00.649Z,6.2
2023-05-01T10:50:04.081Z,6.2
2023-05-01T10:51:12.703Z,6.2
2023-05-01T10:52:00.845Z,6.2
2023-05-01T10:53:10.554Z,5.9
2023-05-01T10:54:11.583Z,5.9
2023-05-01T10:55:20.522Z,5.9
2023-05-01T10:56:00.645Z,5.9
2023-05-01T10:57:02.032Z,5.9
2023-05-01T10:58:00.637Z,6.0
2023-05-01T10:59:02.312Z,6.0
2023-05-01T11:00:00.613Z,6.0
2023-05-01T11:01:20.570Z,6.0
2023-05-01T11:02:20.491Z,5.0
2023-05-01T11:03:20.536Z,5.0
2023-05-01T11:04:02.942Z,5.0
2023-05-01T11:05:00.888Z,5.0
2023-05-01T11:06:01.216Z,5.0
2023-05-01T11:07:00.702Z,5.0
2023-05-01T11:08:20.523Z,5.6
2023-05-01T11:09:01.235Z,5.6
2023-05-01T11:10:00.633Z,5.6
2023-05-01T11:11:20.571Z,5.6
2023-05-01T11:12:00.649Z,5.6
2023-05-01T11:13:00.639Z,5.5
2023-05-01T11:14:04.388Z,5.5
2023-05-01T11:15:01.956Z,5.5
2023-05-01T11:16:20.589Z,5.5
2023-05-01T11:17:00.643Z,5.5
2023-05-01T11:18:01.275Z,5.1
2023-05-01T11:19:00.607Z,5.1
2023-05-01T11:20:00.648Z,5.1
2023-05-01T11:21:00.824Z,5.1
2023-05-01T11:22:00.765Z,5.1
2023-05-01T11:23:00.617Z,5.5
2023-05-01T11:24:01.191Z,5.5
2023-05-01T11:25:02.812Z,5.5
2023-05-01T11:26:02.232Z,5.5
2023-05-01T11:27:00.710Z,5.5
2023-05-01T11:28:02.212Z,5.5
2023-05-01T11:29:00.680Z,5.5
2023-05-01T11:30:00.679Z,5.5
2023-05-01T11:31:00.718Z,5.5
2023-05-01T11:32:00.853Z,5.5
2023-05-01T11:33:01.001Z,5.7
2023-05-01T11:34:01.034Z,5.7
2023-05-01T11:35:00.856Z,5.7
2023-05-01T11:36:01.263Z,5.7
2023-05-01T11:37:00.639Z,5.7
2023-05-01T11:38:00.607Z,5.9
2023-05-01T11:39:00.618Z,5.9
2023-05-01T11:40:00.662Z,5.9
2023-05-01T11:41:01.630Z,5.9
2023-05-01T11:42:08.857Z,5.8
2023-05-01T11:43:05.171Z,5.8
2023-05-01T11:44:00.642Z,5.8
2023-05-01T11:45:08.751Z,5.8
2023-05-01T11:46:00.645Z,5.8
2023-05-01T11:47:00.690Z,5.8
2023-05-01T11:48:03.633Z,6.1
2023-05-01T11:49:01.503Z,6.1
2023-05-01T11:50:00.653Z,6.1
2023-05-01T11:51:11.148Z,6.1
2023-05-01T11:52:00.628Z,6.1
2023-05-01T11:53:01.620Z,5.8
2023-05-01T11:54:03.452Z,5.8
2023-05-01T11:55:01.136Z,5.8
2023-05-01T11:56:00.627Z,5.8
2023-05-01T11:57:00.653Z,5.8
2023-05-01T11:58:01.314Z,7.1
2023-05-01T11:59:09.876Z,7.1
2023-05-01T12:00:00.722Z,7.1
2023-05-01T12:01:00.693Z,7.1
2023-05-01T12:02:00.649Z,7.1
2023-05-01T12:03:04.145Z,5.8
2023-05-01T12:04:01.371Z,5.8
2023-05-01T12:05:14.602Z,5.8
2023-05-01T12:06:00.754Z,5.8
2023-05-01T12:07:00.657Z,5.8
2023-05-01T12:08:19.018Z,5.5
2023-05-01T12:09:01.102Z,5.5
2023-05-01T12:10:00.975Z,5.5
2023-05-01T12:11:00.726Z,5.5
2023-05-01T12:12:00.868Z,5.5
2023-05-01T12:13:03.145Z,5.1
2023-05-01T12:14:01.204Z,5.1
2023-05-01T12:15:01.505Z,5.1
2023-05-01T12:16:00.938Z,5.1
2023-05-01T12:17:00.852Z,5.1
2023-05-01T12:18:01.130Z,5.3
2023-05-01T12:19:00.874Z,5.3
2023-05-01T12:20:00.712Z,5.3
2023-05-01T12:21:00.615Z,5.3
2023-05-01T12:22:04.512Z,5.2
2023-05-01T12:23:01.613Z,5.2
2023-05-01T12:24:10.231Z,5.2
2023-05-01T12:25:00.885Z,5.2
2023-05-01T12:26:00.767Z,5.2
2023-05-01T12:27:00.982Z,5.2
2023-05-01T12:28:06.364Z,5.5
2023-05-01T12:29:03.279Z,5.5
2023-05-01T12:30:00.669Z,5.5
2023-05-01T12:31:03.469Z,5.5
2023-05-01T12:32:01.377Z,5.5
2023-05-01T12:33:07.173Z,4.9
2023-05-01T12:34:03.562Z,4.9
2023-05-01T12:35:13.370Z,4.9
2023-05-01T12:36:09.261Z,4.9
2023-05-01T12:37:00.668Z,4.9
2023-05-01T12:38:09.227Z,5.3
2023-05-01T12:39:02.833Z,5.3
2023-05-01T12:40:00.662Z,5.3
2023-05-01T12:41:00.701Z,5.3
2023-05-01T12:42:00.768Z,5.3
2023-05-01T12:43:00.836Z,5.8
2023-05-01T12:44:00.684Z,5.8
2023-05-01T12:45:01.108Z,5.8
2023-05-01T12:46:02.519Z,5.8
2023-05-01T12:47:03.297Z,6.0
2023-05-01T12:48:00.767Z,6.0
2023-05-01T12:49:00.703Z,6.0
2023-05-01T12:50:02.334Z,6.0
2023-05-01T12:51:00.720Z,6.0
2023-05-01T12:52:01.149Z,6.0
2023-05-01T12:53:01.772Z,5.5
2023-05-01T12:54:00.694Z,5.5
2023-05-01T12:55:02.348Z,5.5
2023-05-01T12:56:00.655Z,5.5
2023-05-01T12:57:06.295Z,6.2
2023-05-01T12:58:00.642Z,6.2
2023-05-01T12:59:00.682Z,6.2
2023-05-01T13:00:03.158Z,6.2
2023-05-01T13:01:00.738Z,6.2
2023-05-01T13:02:05.648Z,5.9
2023-05-01T13:03:02.875Z,5.9
2023-05-01T13:04:00.862Z,5.9
2023-05-01T13:05:10.078Z,5.9
2023-05-01T13:06:02.585Z,5.9
2023-05-01T13:07:00.951Z,5.9
2023-05-01T13:08:00.700Z,5.8
2023-05-01T13:09:08.609Z,5.8
2023-05-01T13:10:01.739Z,5.8
2023-05-01T13:11:08.509Z,5.8
2023-05-01T13:12:02.763Z,5.9
2023-05-01T13:13:00.643Z,5.9
2023-05-01T13:14:08.701Z,5.9
2023-05-01T13:15:00.833Z,5.9
2023-05-01T13:16:11.964Z,5.9
2023-05-01T13:17:00.669Z,6.1
2023-05-01T13:18:04.049Z,6.1
2023-05-01T13:19:00.655Z,6.1
2023-05-01T13:20:03.050Z,6.1
2023-05-01T13:21:08.861Z,6.1
2023-05-01T13:22:00.759Z,7.7
2023-05-01T13:23:08.694Z,7.7
2023-05-01T13:24:00.953Z,7.7
2023-05-01T13:25:02.494Z,7.7
2023-05-01T13:26:00.750Z,7.7
2023-05-01T13:27:04.264Z,6.4
2023-05-01T13:28:00.640Z,6.4
2023-05-01T13:29:02.578Z,6.4
2023-05-01T13:30:01.346Z,6.4
2023-05-01T13:31:00.626Z,6.4
2023-05-01T13:32:03.455Z,6.6
2023-05-01T13:33:00.760Z,6.6
2023-05-01T13:34:03.004Z,6.6